Terminal Aerodrome Forecast
Issued by NWS

Home | Current Version | Previous Version | Text Only | Print | Product List | Glossary On
Versions: 1 2 3 4 5 6 7 8 9 10 11 12 13
000
FTUS42 KTAE 032339
TAFECP
TAF
KECP 032339Z 0400/0424 04009KT P6SM BKN080
     FM040900 08010KT P6SM BKN050
     FM041600 11010G16KT P6SM -SHRA BKN025
     FM042000 15012KT P6SM -RA OVC020=

USA.gov is the U.S. government's official web portal to all federal, state and local government web resources and services.